createdAt,value
2022-12-18T00:01:21.152Z,103087.59
2022-12-18T00:03:48.250Z,103092.69
2022-12-18T00:06:15.613Z,103088.00
2022-12-18T00:08:43.214Z,103094.25
2022-12-18T00:11:13.103Z,103098.50
2022-12-18T00:13:40.078Z,103091.56
2022-12-18T00:16:09.673Z,103088.06
2022-12-18T00:18:36.473Z,103091.56
2022-12-18T00:21:06.094Z,103097.00
2022-12-18T00:23:33.575Z,103102.03
2022-12-18T00:26:01.597Z,103102.03
2022-12-18T00:28:28.100Z,103114.44
2022-12-18T00:31:05.641Z,103116.03
2022-12-18T00:33:32.401Z,103105.53
2022-12-18T00:36:03.716Z,103103.19
2022-12-18T00:38:30.218Z,103100.13
2022-12-18T00:40:56.774Z,103098.56
2022-12-18T00:43:23.262Z,103099.75
2022-12-18T00:45:50.117Z,103103.22
2022-12-18T00:48:16.837Z,103107.09
2022-12-18T00:50:43.369Z,103112.50
2022-12-18T00:53:12.437Z,103117.13
2022-12-18T00:55:40.747Z,103121.81
2022-12-18T00:58:07.516Z,103117.53
2022-12-18T01:00:34.307Z,103121.00
2022-12-18T01:03:00.915Z,103123.72
2022-12-18T01:05:28.182Z,103129.50
2022-12-18T01:07:55.784Z,103131.84
2022-12-18T01:10:22.216Z,103135.69
2022-12-18T01:12:48.778Z,103142.28
2022-12-18T01:15:15.901Z,103144.22
2022-12-18T01:17:43.117Z,103143.81
2022-12-18T01:20:11.915Z,103143.81
2022-12-18T01:22:38.958Z,103136.06
2022-12-18T01:25:06.565Z,103132.16
2022-12-18T01:27:34.486Z,103130.25
2022-12-18T01:30:01.002Z,103133.31
2022-12-18T01:32:27.444Z,103142.97
2022-12-18T01:34:53.847Z,103137.94
2022-12-18T01:37:20.318Z,103140.25
2022-12-18T01:39:46.860Z,103133.28
2022-12-18T01:42:15.708Z,103131.72
2022-12-18T01:44:57.235Z,103132.88
2022-12-18T01:47:42.455Z,103132.47
2022-12-18T01:50:21.033Z,103133.59
2022-12-18T01:53:12.261Z,103141.75
2022-12-18T01:55:50.335Z,103130.50
2022-12-18T01:58:17.877Z,103120.03
2022-12-18T02:00:44.417Z,103113.44
2022-12-18T02:03:11.519Z,103124.63
2022-12-18T02:06:08.665Z,103127.72
2022-12-18T02:08:40.322Z,103121.13
2022-12-18T02:11:57.615Z,103119.97
2022-12-18T02:14:39.234Z,103121.50
2022-12-18T02:17:17.581Z,103124.19
2022-12-18T02:19:47.026Z,103126.88
2022-12-18T02:22:34.013Z,103121.47
2022-12-18T02:25:20.709Z,103133.41
2022-12-18T02:27:48.261Z,103134.56
2022-12-18T02:30:15.305Z,103142.66
2022-12-18T02:32:45.502Z,103146.56
2022-12-18T02:35:16.390Z,103154.25
2022-12-18T02:37:45.779Z,103149.97
2022-12-18T02:40:14.809Z,103151.13
2022-12-18T02:42:41.316Z,103157.69
2022-12-18T02:45:08.540Z,103153.44
2022-12-18T02:47:39.186Z,103147.22
2022-12-18T02:50:14.518Z,103146.03
2022-12-18T02:52:54.346Z,103157.25
2022-12-18T02:55:48.384Z,103161.47
2022-12-18T02:58:42.401Z,103170.72
2022-12-18T03:01:08.807Z,103169.56
2022-12-18T03:04:02.966Z,103164.50
2022-12-18T03:06:38.552Z,103163.31
2022-12-18T03:09:17.469Z,103174.50
2022-12-18T03:12:08.588Z,103176.03
2022-12-18T03:14:37.213Z,103175.25
2022-12-18T03:17:06.828Z,103171.75
2022-12-18T03:19:34.250Z,103174.03
2022-12-18T03:22:03.816Z,103164.38
2022-12-18T03:24:33.146Z,103169.38
2022-12-18T03:27:03.220Z,103173.25
2022-12-18T03:29:36.873Z,103167.06
2022-12-18T03:32:08.840Z,103172.44
2022-12-18T03:34:38.455Z,103166.22
2022-12-18T03:37:06.710Z,103165.44
2022-12-18T03:39:34.641Z,103165.00
2022-12-18T03:42:15.997Z,103172.75
2022-12-18T03:44:51.712Z,103168.81
2022-12-18T03:47:28.410Z,103161.13
2022-12-18T03:50:19.508Z,103166.88
2022-12-18T03:52:48.963Z,103179.22
2022-12-18T03:55:16.282Z,103171.88
2022-12-18T03:57:44.301Z,103179.16
2022-12-18T04:00:14.138Z,103177.22
2022-12-18T04:02:45.758Z,103184.56
2022-12-18T04:05:14.044Z,103183.34
2022-12-18T04:07:41.408Z,103184.53
2022-12-18T04:10:13.026Z,103183.75
2022-12-18T04:12:39.473Z,103189.50
2022-12-18T04:15:06.831Z,103187.94
2022-12-18T04:17:33.308Z,103192.53
2022-12-18T04:19:59.759Z,103188.66
2022-12-18T04:22:26.487Z,103185.19
2022-12-18T04:24:52.922Z,103181.28
2022-12-18T04:27:19.719Z,103168.53
2022-12-18T04:29:46.148Z,103166.59
2022-12-18T04:32:12.590Z,103172.34
2022-12-18T04:34:39.014Z,103177.34
2022-12-18T04:37:05.464Z,103175.03
2022-12-18T04:39:31.909Z,103169.97
2022-12-18T04:42:01.506Z,103163.41
2022-12-18T04:44:27.988Z,103173.78
2022-12-18T04:46:54.561Z,103169.91
2022-12-18T04:49:21.073Z,103167.94
2022-12-18T04:51:47.546Z,103169.84
2022-12-18T04:54:14.363Z,103184.50
2022-12-18T04:56:40.921Z,103183.31
2022-12-18T04:59:07.433Z,103193.72
2022-12-18T05:01:36.880Z,103189.47
2022-12-18T05:04:04.075Z,103182.88
2022-12-18T05:06:30.595Z,103175.13
2022-12-18T05:08:57.159Z,103179.00
2022-12-18T05:11:23.606Z,103175.09
2022-12-18T05:13:50.306Z,103170.44
2022-12-18T05:16:17.156Z,103180.44
2022-12-18T05:18:43.814Z,103183.94
2022-12-18T05:21:10.408Z,103177.69
2022-12-18T05:23:37.854Z,103182.31
2022-12-18T05:26:07.064Z,103174.19
2022-12-18T05:28:34.364Z,103171.06
2022-12-18T05:31:03.230Z,103188.41
2022-12-18T05:33:32.711Z,103202.28
2022-12-18T05:36:01.969Z,103196.44
2022-12-18T05:38:31.260Z,103208.41
2022-12-18T05:40:58.174Z,103206.88
2022-12-18T05:43:25.512Z,103208.34
2022-12-18T05:45:52.795Z,103214.50
2022-12-18T05:48:20.233Z,103214.13
2022-12-18T05:50:48.884Z,103225.72
2022-12-18T05:53:17.524Z,103219.91
2022-12-18T05:55:44.923Z,103223.00
2022-12-18T05:58:13.157Z,103222.25
2022-12-18T06:00:42.191Z,103218.00
2022-12-18T06:03:11.036Z,103217.66
2022-12-18T06:05:39.670Z,103215.75
2022-12-18T06:08:06.589Z,103221.91
2022-12-18T06:10:33.551Z,103229.28
2022-12-18T06:13:00.208Z,103230.84
2022-12-18T06:15:26.667Z,103225.81
2022-12-18T06:17:53.152Z,103222.44
2022-12-18T06:20:20.067Z,103224.75
2022-12-18T06:22:46.697Z,103222.16
2022-12-18T06:25:13.298Z,103222.66
2022-12-18T06:27:39.819Z,103220.41
2022-12-18T06:30:07.131Z,103224.38
2022-12-18T06:32:33.706Z,103229.53
2022-12-18T06:35:00.303Z,103230.81
2022-12-18T06:37:27.200Z,103221.63
2022-12-18T06:39:54.847Z,103220.19
2022-12-18T06:42:24.001Z,103227.63
2022-12-18T06:44:51.238Z,103237.00
2022-12-18T06:47:17.688Z,103246.38
2022-12-18T06:49:44.404Z,103243.75
2022-12-18T06:52:10.850Z,103248.09
2022-12-18T06:54:37.347Z,103254.72
2022-12-18T06:57:03.905Z,103261.38
2022-12-18T06:59:30.357Z,103267.25
2022-12-18T07:01:56.968Z,103269.25
2022-12-18T07:04:28.064Z,103265.06
2022-12-18T07:06:54.535Z,103269.38
2022-12-18T07:09:21.237Z,103270.59
2022-12-18T07:11:47.698Z,103276.06
2022-12-18T07:14:14.161Z,103275.31
2022-12-18T07:16:41.797Z,103279.63
2022-12-18T07:19:08.330Z,103275.03
2022-12-18T07:21:34.844Z,103282.03
2022-12-18T07:24:01.434Z,103262.31
2022-12-18T07:26:27.925Z,103271.66
2022-12-18T07:28:58.450Z,103276.28
2022-12-18T07:31:25.998Z,103267.44
2022-12-18T07:33:53.270Z,103267.84
2022-12-18T07:36:20.041Z,103273.66
2022-12-18T07:38:49.012Z,103275.63
2022-12-18T07:41:16.313Z,103289.59
2022-12-18T07:43:43.622Z,103299.28
2022-12-18T07:46:13.267Z,103302.38
2022-12-18T07:48:40.476Z,103309.38
2022-12-18T07:51:08.189Z,103309.78
2022-12-18T07:53:36.425Z,103312.50
2022-12-18T07:58:54.580Z,103317.94
2022-12-18T08:01:21.357Z,103307.88
2022-12-18T08:03:48.023Z,103304.41
2022-12-18T08:06:14.885Z,103305.94
2022-12-18T08:08:43.180Z,103309.44
2022-12-18T08:11:09.652Z,103303.25
2022-12-18T08:13:36.350Z,103302.47
2022-12-18T08:16:06.820Z,103308.66
2022-12-18T08:18:34.474Z,103310.22
2022-12-18T08:21:14.437Z,103302.88
2022-12-18T08:23:43.377Z,103298.56
2022-12-18T08:26:14.251Z,103294.72
2022-12-18T08:28:41.401Z,103309.81
2022-12-18T08:31:08.896Z,103293.13
2022-12-18T08:33:38.244Z,103291.22
2022-12-18T08:36:05.980Z,103292.72
2022-12-18T08:38:33.694Z,103289.25
2022-12-18T08:41:06.185Z,103282.66
2022-12-18T08:43:51.167Z,103276.09
2022-12-18T08:46:19.281Z,103275.66
2022-12-18T08:48:46.110Z,103270.97
2022-12-18T08:51:12.867Z,103270.56
2022-12-18T08:53:39.975Z,103266.72
2022-12-18T08:56:06.946Z,103272.13
2022-12-18T08:58:33.422Z,103272.13
2022-12-18T09:01:05.164Z,103272.47
2022-12-18T09:03:32.199Z,103272.91
2022-12-18T09:05:58.712Z,103276.75
2022-12-18T09:08:25.228Z,103275.25
2022-12-18T09:10:52.400Z,103282.25
2022-12-18T09:13:39.606Z,103283.78
2022-12-18T09:16:06.487Z,103283.41
2022-12-18T09:18:32.953Z,103278.75
2022-12-18T09:20:59.393Z,103288.47
2022-12-18T09:23:25.913Z,103285.38
2022-12-18T09:25:52.384Z,103276.47
2022-12-18T09:28:20.127Z,103275.69
2022-12-18T09:30:49.798Z,103271.44
2022-12-18T09:33:17.293Z,103273.72
2022-12-18T09:35:45.413Z,103269.88
2022-12-18T09:38:17.838Z,103270.28
2022-12-18T09:40:48.264Z,103270.66
2022-12-18T09:43:19.785Z,103273.00
2022-12-18T09:45:52.629Z,103278.00
2022-12-18T09:48:39.587Z,103280.72
2022-12-18T09:51:29.703Z,103280.72
2022-12-18T09:54:05.343Z,103273.34
2022-12-18T09:56:38.480Z,103277.22
2022-12-18T09:59:05.695Z,103288.47
2022-12-18T10:01:40.215Z,103290.41
2022-12-18T10:04:10.380Z,103288.06
2022-12-18T10:06:43.865Z,103292.34
2022-12-18T10:09:31.096Z,103291.19
2022-12-18T10:12:19.864Z,103288.44
2022-12-18T10:15:05.561Z,103281.13
2022-12-18T10:18:05.961Z,103286.16
2022-12-18T10:20:42.107Z,103288.09
2022-12-18T10:23:33.089Z,103292.38
2022-12-18T10:26:04.439Z,103297.03
2022-12-18T10:28:33.701Z,103296.25
2022-12-18T10:31:00.328Z,103298.56
2022-12-18T10:33:31.140Z,103298.56
2022-12-18T10:35:57.598Z,103295.84
2022-12-18T10:38:32.805Z,103293.91
2022-12-18T10:41:18.390Z,103298.19
2022-12-18T10:43:45.157Z,103293.13
2022-12-18T10:46:11.635Z,103297.78
2022-12-18T10:48:48.130Z,103306.34
2022-12-18T10:53:54.228Z,103302.44
2022-12-18T10:54:20.535Z,103296.25
2022-12-18T10:56:47.209Z,103292.75
2022-12-18T10:59:18.472Z,103295.09
2022-12-18T11:01:56.551Z,103290.06
2022-12-18T11:04:31.875Z,103289.25
2022-12-18T11:07:02.426Z,103289.66
2022-12-18T11:09:34.579Z,103285.00
2022-12-18T11:12:15.662Z,103272.19
2022-12-18T11:14:46.575Z,103272.97
2022-12-18T11:17:25.305Z,103273.75
2022-12-18T11:20:00.365Z,103273.38
2022-12-18T11:22:28.837Z,103287.31
2022-12-18T11:27:58.886Z,103282.69
2022-12-18T11:30:36.952Z,103294.69
2022-12-18T11:33:11.236Z,103285.00
2022-12-18T11:35:50.332Z,103277.63
2022-12-18T11:38:27.593Z,103276.84
2022-12-18T11:40:56.732Z,103275.28
2022-12-18T11:43:30.564Z,103277.97
2022-12-18T11:46:17.649Z,103276.78
2022-12-18T11:48:52.005Z,103286.47
2022-12-18T11:51:42.810Z,103279.88
2022-12-18T11:54:14.623Z,103269.00
2022-12-18T11:57:30.346Z,103267.81
2022-12-18T12:00:02.778Z,103261.19
2022-12-18T12:02:49.522Z,103269.34
2022-12-18T12:05:34.858Z,103274.75
2022-12-18T12:08:13.445Z,103274.72
2022-12-18T12:10:57.135Z,103269.28
2022-12-18T12:13:41.034Z,103265.78
2022-12-18T12:16:09.417Z,103251.78
2022-12-18T12:18:35.951Z,103249.47
2022-12-18T12:21:24.368Z,103247.09
2022-12-18T12:24:00.140Z,103246.31
2022-12-18T12:26:52.440Z,103232.31
2022-12-18T12:29:28.119Z,103219.84
2022-12-18T12:32:21.698Z,103210.56
2022-12-18T12:35:09.883Z,103202.00
2022-12-18T12:38:13.994Z,103205.88
2022-12-18T12:40:53.880Z,103207.00
2022-12-18T12:43:49.600Z,103207.00
2022-12-18T12:46:20.924Z,103191.81
2022-12-18T12:48:59.060Z,103190.66
2022-12-18T12:51:37.668Z,103185.56
2022-12-18T12:54:07.602Z,103188.69
2022-12-18T12:56:43.296Z,103188.25
2022-12-18T12:59:23.675Z,103186.31
2022-12-18T13:02:14.736Z,103183.56
2022-12-18T13:04:53.816Z,103178.88
2022-12-18T13:07:29.332Z,103169.56
2022-12-18T13:10:20.650Z,103162.94
2022-12-18T13:12:59.413Z,103146.97
2022-12-18T13:15:44.792Z,103143.88
2022-12-18T13:18:22.337Z,103129.09
2022-12-18T13:21:04.982Z,103126.34
2022-12-18T13:23:39.916Z,103123.19
2022-12-18T13:26:28.992Z,103125.50
2022-12-18T13:28:58.172Z,103130.16
2022-12-18T13:31:30.975Z,103131.69
2022-12-18T13:34:26.130Z,103136.75
2022-12-18T13:36:55.867Z,103138.66
2022-12-18T13:39:31.413Z,103143.28
2022-12-18T13:42:07.047Z,103149.09
2022-12-18T13:44:42.886Z,103145.25
2022-12-18T13:47:39.052Z,103140.19
2022-12-18T13:50:30.941Z,103144.13
2022-12-18T13:53:01.944Z,103144.56
2022-12-18T13:55:28.484Z,103149.66
2022-12-18T13:58:05.957Z,103140.81
2022-12-18T14:00:32.704Z,103129.97
2022-12-18T14:03:00.956Z,103127.69
2022-12-18T14:05:33.471Z,103133.22
2022-12-18T14:08:14.672Z,103128.59
2022-12-18T14:10:47.704Z,103128.25
2022-12-18T14:13:29.115Z,103139.53
2022-12-18T14:15:57.144Z,103143.03
2022-12-18T14:18:35.422Z,103147.69
2022-12-18T14:21:04.913Z,103133.72
2022-12-18T14:23:43.538Z,103125.16
2022-12-18T14:26:30.696Z,103127.84
2022-12-18T14:28:58.549Z,103133.66
2022-12-18T14:31:32.731Z,103138.28
2022-12-18T14:33:59.219Z,103137.91
2022-12-18T14:36:28.009Z,103127.38
2022-12-18T14:38:59.595Z,103127.34
2022-12-18T14:41:27.691Z,103119.94
2022-12-18T14:43:55.299Z,103118.75
2022-12-18T14:46:36.757Z,103112.13
2022-12-18T14:49:30.327Z,103107.13
2022-12-18T14:52:02.586Z,103112.56
2022-12-18T14:54:30.565Z,103116.50
2022-12-18T14:57:30.569Z,103121.19
2022-12-18T15:00:06.313Z,103117.72
2022-12-18T15:02:36.878Z,103110.38
2022-12-18T15:05:18.409Z,103107.66
2022-12-18T15:07:56.338Z,103105.72
2022-12-18T15:10:25.745Z,103106.50
2022-12-18T15:13:00.623Z,103109.19
2022-12-18T15:15:39.229Z,103099.44
2022-12-18T15:18:08.592Z,103103.34
2022-12-18T15:20:49.450Z,103097.09
2022-12-18T15:23:18.604Z,103097.44
2022-12-18T15:25:46.139Z,103091.19
2022-12-18T15:28:23.955Z,103094.63
2022-12-18T15:31:24.617Z,103093.44
2022-12-18T15:33:53.154Z,103079.03
2022-12-18T15:36:26.068Z,103081.72
2022-12-18T15:38:58.911Z,103077.41
2022-12-18T15:41:37.167Z,103063.78
2022-12-18T15:44:22.318Z,103057.13
2022-12-18T15:46:48.747Z,103050.09
2022-12-18T15:49:15.190Z,103054.31
2022-12-18T15:51:41.769Z,103051.56
2022-12-18T15:54:14.269Z,103048.03
2022-12-18T15:56:59.449Z,103042.97
2022-12-18T15:59:25.939Z,103042.50
2022-12-18T16:01:56.066Z,103045.63
2022-12-18T16:04:23.501Z,103042.84
2022-12-18T16:07:13.895Z,103040.47
2022-12-18T16:09:37.797Z,103033.81
2022-12-18T16:12:04.648Z,103024.47
2022-12-18T16:14:32.493Z,103009.28
2022-12-18T16:17:06.848Z,103003.00
2022-12-18T16:19:33.353Z,102995.97
2022-12-18T16:21:59.900Z,102988.16
2022-12-18T16:24:29.285Z,102991.28
2022-12-18T16:26:59.781Z,102993.16
2022-12-18T16:29:28.557Z,103002.88
2022-12-18T16:31:56.204Z,103006.38
2022-12-18T16:34:24.963Z,102998.16
2022-12-18T16:37:01.740Z,103000.47
2022-12-18T16:39:32.827Z,102994.59
2022-12-18T16:42:02.021Z,102996.94
2022-12-18T16:44:33.442Z,102995.72
2022-12-18T16:47:02.774Z,102995.31
2022-12-18T16:49:29.805Z,102999.19
2022-12-18T16:51:56.397Z,102991.78
2022-12-18T16:54:23.039Z,102983.63
2022-12-18T16:56:51.694Z,102978.53
2022-12-18T16:59:18.758Z,102992.50
2022-12-18T17:01:45.394Z,102987.84
2022-12-18T17:04:12.029Z,102986.66
2022-12-18T17:06:44.470Z,102990.88
2022-12-18T17:09:16.221Z,102999.47
2022-12-18T17:11:43.608Z,102988.13
2022-12-18T17:14:15.773Z,102987.38
2022-12-18T17:16:42.858Z,102977.22
2022-12-18T17:19:15.187Z,102974.09
2022-12-18T17:21:44.984Z,102966.69
2022-12-18T17:24:11.859Z,102958.13
2022-12-18T17:26:38.474Z,102954.63
2022-12-18T17:29:05.266Z,102961.59
2022-12-18T17:31:32.442Z,102954.97
2022-12-18T17:33:59.172Z,102974.81
2022-12-18T17:36:28.942Z,102968.94
2022-12-18T17:38:57.633Z,102968.94
2022-12-18T17:41:25.411Z,102965.81
2022-12-18T17:43:59.794Z,102960.38
2022-12-18T17:46:27.571Z,102958.78
2022-12-18T17:48:58.827Z,102975.13
2022-12-18T17:51:25.837Z,102963.81
2022-12-18T17:53:52.476Z,102957.19
2022-12-18T17:56:20.697Z,102951.31
2022-12-18T17:58:48.066Z,102947.81
2022-12-18T18:01:17.365Z,102940.78
2022-12-18T18:03:45.688Z,102928.31
2022-12-18T18:06:15.352Z,102925.22
2022-12-18T18:08:42.188Z,102938.38
2022-12-18T18:11:33.137Z,102946.16
2022-12-18T18:14:02.757Z,102936.81
2022-12-18T18:16:41.464Z,102934.88
2022-12-18T18:19:11.433Z,102915.03
2022-12-18T18:21:41.022Z,102909.13
2022-12-18T18:24:09.436Z,102909.13
2022-12-18T18:26:36.516Z,102902.09
2022-12-18T18:29:05.216Z,102899.34
2022-12-18T18:31:35.301Z,102900.94
2022-12-18T18:34:08.213Z,102896.22
2022-12-18T18:36:34.846Z,102888.81
2022-12-18T18:39:02.165Z,102890.34
2022-12-18T18:41:31.335Z,102889.16
2022-12-18T18:43:58.431Z,102879.78
2022-12-18T18:46:25.963Z,102872.41
2022-12-18T18:48:52.715Z,102881.34
2022-12-18T18:51:21.727Z,102884.06
2022-12-18T18:53:49.797Z,102884.84
2022-12-18T18:59:05.561Z,102873.53
2022-12-18T19:01:32.391Z,102873.53
2022-12-18T19:03:59.006Z,102879.75
2022-12-18T19:06:28.498Z,102884.78
2022-12-18T19:08:56.902Z,102871.94
2022-12-18T19:11:43.946Z,102864.53
2022-12-18T19:14:12.764Z,102864.53
2022-12-18T19:16:39.741Z,102862.56
2022-12-18T19:19:06.858Z,102852.75
2022-12-18T19:21:34.879Z,102846.53
2022-12-18T19:24:02.842Z,102834.88
2022-12-18T19:26:30.201Z,102848.88
2022-12-18T19:29:04.795Z,102843.44
2022-12-18T19:31:35.586Z,102828.63
2022-12-18T19:34:04.005Z,102835.56
2022-12-18T19:36:32.040Z,102834.38
2022-12-18T19:39:01.417Z,102823.47
2022-12-18T19:41:32.982Z,102812.59
2022-12-18T19:44:07.398Z,102823.09
2022-12-18T19:46:34.673Z,102814.91
2022-12-18T19:49:01.349Z,102810.97
2022-12-18T19:51:29.764Z,102812.94
2022-12-18T19:53:59.393Z,102805.13
2022-12-18T19:56:30.830Z,102802.38
2022-12-18T19:58:57.781Z,102806.66
2022-12-18T20:01:25.815Z,102795.31
2022-12-18T20:03:54.557Z,102798.06
2022-12-18T20:06:45.414Z,102799.25
2022-12-18T20:09:12.051Z,102802.31
2022-12-18T20:11:40.256Z,102801.53
2022-12-18T20:14:10.433Z,102796.88
2022-12-18T20:16:37.080Z,102808.09
2022-12-18T20:19:04.721Z,102808.84
2022-12-18T20:21:31.792Z,102793.31
2022-12-18T20:23:59.985Z,102788.63
2022-12-18T20:26:27.015Z,102782.75
2022-12-18T20:28:54.781Z,102761.69
2022-12-18T20:31:21.604Z,102758.53
2022-12-18T20:33:48.558Z,102748.81
2022-12-18T20:36:21.407Z,102751.53
2022-12-18T20:38:49.525Z,102750.34
2022-12-18T20:41:20.043Z,102741.00
2022-12-18T20:43:47.594Z,102733.59
2022-12-18T20:46:16.524Z,102730.88
2022-12-18T20:48:43.865Z,102726.19
2022-12-18T20:51:15.720Z,102732.38
2022-12-18T20:53:45.859Z,102746.78
2022-12-18T20:56:21.549Z,102733.16
2022-12-18T20:58:49.873Z,102735.13
2022-12-18T21:01:20.047Z,102726.50
2022-12-18T21:03:47.654Z,102725.34
2022-12-18T21:06:15.928Z,102721.84
2022-12-18T21:08:43.103Z,102708.19
2022-12-18T21:11:32.312Z,102716.38
2022-12-18T21:13:59.289Z,102703.94
2022-12-18T21:16:26.052Z,102701.97
2022-12-18T21:18:52.651Z,102705.47
2022-12-18T21:21:26.227Z,102694.56
2022-12-18T21:23:53.737Z,102697.63
2022-12-18T21:26:22.836Z,102678.13
2022-12-18T21:28:55.076Z,102675.81
2022-12-18T21:31:23.526Z,102667.66
2022-12-18T21:33:50.477Z,102657.50
2022-12-18T21:36:18.969Z,102654.78
2022-12-18T21:38:45.755Z,102660.25
2022-12-18T21:41:37.472Z,102647.38
2022-12-18T21:44:09.096Z,102653.19
2022-12-18T21:46:38.236Z,102645.03
2022-12-18T21:49:06.129Z,102641.06
2022-12-18T21:51:33.439Z,102632.91
2022-12-18T21:54:00.852Z,102620.03
2022-12-18T21:56:51.933Z,102599.41
2022-12-18T21:59:21.558Z,102597.03
2022-12-18T22:01:49.684Z,102599.75
2022-12-18T22:04:17.841Z,102602.47
2022-12-18T22:06:45.943Z,102601.28
2022-12-18T22:09:15.366Z,102598.56
2022-12-18T22:11:42.138Z,102615.66
2022-12-18T22:14:08.748Z,102635.50
2022-12-18T22:16:35.692Z,102642.53
2022-12-18T22:19:06.597Z,102644.50
2022-12-18T22:21:38.661Z,102634.75
2022-12-18T22:24:07.848Z,102634.44
2022-12-18T22:26:40.073Z,102648.56
2022-12-18T22:29:26.277Z,102653.31
2022-12-18T22:31:52.797Z,102640.31
2022-12-18T22:34:22.872Z,102661.50
2022-12-18T22:36:50.702Z,102650.75
2022-12-18T22:39:21.273Z,102623.31
2022-12-18T22:41:48.321Z,102612.97
2022-12-18T22:44:15.189Z,102587.50
2022-12-18T22:46:49.303Z,102583.81
2022-12-18T22:49:24.789Z,102603.88
2022-12-18T22:51:52.116Z,102585.81
2022-12-18T22:54:19.004Z,102592.59
2022-12-18T22:56:45.610Z,102597.81
2022-12-18T22:59:20.379Z,102598.78
2022-12-18T23:01:47.667Z,102584.53
2022-12-18T23:04:15.741Z,102564.09
2022-12-18T23:06:43.090Z,102565.44
2022-12-18T23:09:20.236Z,102556.66
2022-12-18T23:11:47.842Z,102544.38
2022-12-18T23:14:14.867Z,102545.38
2022-12-18T23:16:41.341Z,102540.78
2022-12-18T23:19:08.974Z,102547.50
2022-12-18T23:21:35.743Z,102537.22
2022-12-18T23:24:03.821Z,102531.53
2022-12-18T23:26:30.435Z,102515.31
2022-12-18T23:28:56.877Z,102516.22
2022-12-18T23:31:32.755Z,102495.75
2022-12-18T23:34:00.969Z,102496.28
2022-12-18T23:36:28.124Z,102497.56
2022-12-18T23:38:58.643Z,102498.44
2022-12-18T23:41:27.420Z,102493.88
2022-12-18T23:43:54.512Z,102491.59
2022-12-18T23:46:23.815Z,102486.28
2022-12-18T23:48:50.998Z,102491.81
2022-12-18T23:51:19.622Z,102477.91
2022-12-18T23:53:46.284Z,102477.19
2022-12-18T23:56:13.858Z,102450.19
2022-12-18T23:58:41.406Z,102458.00
